Webcam Flughafen St.Gallen-Altenrhein

Live-Bilder und Zeitraffer LSZR / ACH.

 

Live aus Altenrhein
LIVE
LSZR 020350Z AUTO 13003KT 9000 SCT007 OVC031 02/02 Q1015
Zeitraffer heute
2020-12-02 00:14:08
LSZR 012250Z AUTO VRB01KT 9999 BKN011 03/02 Q1016